Time;durP1;ratioP1;P1;durP2;ratioP2;P2;SDS_P1;SDS_P2;PMS_P1;PMS_P2;Temp;Humidity;BMP_temperature;BMP_pressure;BME280_temperature;BME280_humidity;BME280_pressure;Samples;Min_cycle;Max_cycle;Signal;HPM_P1;HPM_P2
2023/09/01 00:01:03;;;;;;;3.10;1.63;;;16.80;99.90;;;;;;4974696;28;20106;-77
2023/09/01 00:03:29;;;;;;;3.50;1.55;;;16.80;99.90;;;;;;4973705;28;20462;-77
2023/09/01 00:06:10;;;;;;;7.88;1.60;;;16.90;99.90;;;;;;4974037;28;20027;-77
2023/09/01 00:08:36;;;;;;;4.75;1.45;;;16.90;99.90;;;;;;4975440;28;20019;-77
2023/09/01 00:11:02;;;;;;;4.40;1.20;;;16.90;99.90;;;;;;4973932;28;20103;-77
2023/09/01 00:13:27;;;;;;;3.45;1.40;;;16.90;99.90;;;;;;4974635;28;20033;-77
2023/09/01 00:15:56;;;;;;;2.67;1.27;;;16.90;99.90;;;;;;4973982;28;20034;-77
2023/09/01 00:18:21;;;;;;;2.20;1.50;;;16.90;99.90;;;;;;4973637;28;20092;-76
2023/09/01 00:20:47;;;;;;;3.97;1.50;;;16.90;99.90;;;;;;4973826;28;20031;-76
2023/09/01 00:23:12;;;;;;;7.95;2.28;;;16.90;99.90;;;;;;4973588;28;20098;-76
2023/09/01 00:25:38;;;;;;;6.30;1.70;;;16.90;99.90;;;;;;4973522;28;20037;-76
2023/09/01 00:28:07;;;;;;;2.75;1.42;;;16.90;99.90;;;;;;4955956;28;20425;-76
2023/09/01 00:30:49;;;;;;;3.05;1.50;;;16.90;99.90;;;;;;4972619;28;20489;-77
2023/09/01 00:33:15;;;;;;;3.60;1.58;;;16.90;99.90;;;;;;4960064;28;20035;-76
2023/09/01 00:35:43;;;;;;;6.00;1.80;;;16.90;99.90;;;;;;4977150;28;20058;-76
2023/09/01 00:38:12;;;;;;;3.72;1.90;;;16.90;99.90;;;;;;4977139;28;20047;-76
2023/09/01 00:40:37;;;;;;;2.90;1.70;;;16.90;99.90;;;;;;4977042;28;20033;-76
2023/09/01 00:43:21;;;;;;;3.80;1.65;;;16.90;99.90;;;;;;4975912;28;20129;-76
2023/09/01 00:45:47;;;;;;;3.30;1.70;;;16.90;99.90;;;;;;4977292;28;20058;-76
2023/09/01 00:48:16;;;;;;;3.08;1.55;;;17.00;99.90;;;;;;4977130;28;20047;-76
2023/09/01 00:50:42;;;;;;;4.07;1.40;;;17.00;99.90;;;;;;4976986;28;20019;-75
2023/09/01 00:53:18;;;;;;;7.03;1.70;;;17.00;99.90;;;;;;4976495;28;20023;-76
2023/09/01 00:55:51;;;;;;;2.90;1.55;;;17.00;99.90;;;;;;4976827;28;20058;-75
2023/09/01 00:58:19;;;;;;;3.70;1.40;;;16.90;99.90;;;;;;4976876;28;20085;-75
2023/09/01 01:00:45;;;;;;;5.53;1.75;;;17.00;99.90;;;;;;4976669;28;20062;-75
2023/09/01 01:03:11;;;;;;;3.28;1.75;;;17.00;99.90;;;;;;4976914;28;20030;-75
2023/09/01 01:06:19;;;;;;;4.72;2.05;;;17.00;99.90;;;;;;4959322;28;20077;-75
2023/09/01 01:09:08;;;;;;;3.45;1.63;;;17.00;99.90;;;;;;4976727;28;20114;-75
2023/09/01 01:11:37;;;;;;;4.13;1.70;;;17.00;99.90;;;;;;4975328;28;20051;-75
2023/09/01 01:14:13;;;;;;;3.15;1.30;;;17.00;99.90;;;;;;4976961;28;20035;-75
2023/09/01 01:16:50;;;;;;;6.13;1.77;;;17.00;99.90;;;;;;4959842;28;20505;-75
2023/09/01 01:19:25;;;;;;;4.18;1.48;;;17.00;99.90;;;;;;4977008;28;20038;-73
2023/09/01 01:21:54;;;;;;;3.17;1.23;;;17.00;99.90;;;;;;4975479;28;20023;-76
2023/09/01 01:24:21;;;;;;;3.17;1.45;;;17.00;99.90;;;;;;4976858;28;20085;-75
2023/09/01 01:26:49;;;;;;;6.60;1.70;;;17.00;99.90;;;;;;4976717;28;20520;-76
2023/09/01 01:29:21;;;;;;;3.90;1.55;;;17.00;99.90;;;;;;4975275;28;20030;-75
2023/09/01 01:31:47;;;;;;;4.20;1.20;;;17.00;99.90;;;;;;4976302;28;20038;-75
2023/09/01 01:34:35;;;;;;;3.47;1.10;;;17.00;99.90;;;;;;4959082;28;20034;-77
2023/09/01 01:37:28;;;;;;;2.42;1.25;;;17.00;99.90;;;;;;4976349;28;20027;-75
2023/09/01 01:39:55;;;;;;;1.48;0.68;;;17.10;99.90;;;;;;4981365;28;20033;-76
2023/09/01 01:42:27;;;;;;;2.50;1.00;;;17.10;99.90;;;;;;4979764;28;20034;-76
2023/09/01 01:44:58;;;;;;;3.63;1.00;;;17.10;99.90;;;;;;4979449;28;20022;-76
2023/09/01 01:47:27;;;;;;;3.05;1.15;;;17.10;99.90;;;;;;4974742;28;20043;-76
2023/09/01 01:49:52;;;;;;;3.13;0.93;;;17.10;99.90;;;;;;4958588;28;20031;-76
2023/09/01 01:52:18;;;;;;;3.58;1.00;;;17.10;99.90;;;;;;4974940;28;20386;-77
2023/09/01 01:54:44;;;;;;;4.40;1.20;;;17.20;99.90;;;;;;4976466;28;20027;-77
2023/09/01 01:57:15;;;;;;;2.40;0.95;;;17.20;99.90;;;;;;4976186;28;20027;-77
2023/09/01 01:59:44;;;;;;;5.78;1.10;;;17.20;99.90;;;;;;4976306;28;20098;-77
2023/09/01 02:02:10;;;;;;;3.00;0.80;;;17.20;99.90;;;;;;4975083;28;20023;-77
2023/09/01 02:04:35;;;;;;;2.63;0.90;;;17.20;99.90;;;;;;4975530;28;20042;-76
2023/09/01 02:07:05;;;;;;;2.20;0.70;;;17.20;99.90;;;;;;4976753;28;20038;-76
2023/09/01 02:09:33;;;;;;;2.30;1.10;;;17.20;99.90;;;;;;4974723;28;20034;-76
2023/09/01 02:11:59;;;;;;;2.78;1.08;;;17.20;99.90;;;;;;4976331;28;20107;-77
2023/09/01 02:14:25;;;;;;;2.60;0.90;;;17.20;99.90;;;;;;4976020;28;20027;-77
2023/09/01 02:16:53;;;;;;;5.25;1.20;;;17.20;99.90;;;;;;4976636;28;20029;-77
2023/09/01 02:19:27;;;;;;;4.78;1.13;;;17.30;99.90;;;;;;4976525;28;20098;-78
2023/09/01 02:21:53;;;;;;;3.38;1.00;;;17.30;99.90;;;;;;4976575;28;20489;-76
2023/09/01 02:24:25;;;;;;;2.78;1.45;;;17.30;99.90;;;;;;4976163;28;20027;-76
2023/09/01 02:26:50;;;;;;;3.42;1.23;;;17.30;99.90;;;;;;4975580;28;20042;-79
2023/09/01 02:29:16;;;;;;;2.40;1.00;;;17.30;99.90;;;;;;4976540;28;20027;-78
2023/09/01 02:31:41;;;;;;;2.72;1.35;;;17.30;99.90;;;;;;4976813;28;20035;-77
2023/09/01 02:34:07;;;;;;;3.00;1.02;;;17.20;99.90;;;;;;4976889;28;20401;-77
2023/09/01 02:36:36;;;;;;;2.95;1.10;;;17.30;99.90;;;;;;4976268;28;20093;-76
2023/09/01 02:39:04;;;;;;;2.40;0.80;;;17.20;99.90;;;;;;4974437;28;20506;-77
2023/09/01 02:41:30;;;;;;;1.65;0.88;;;17.20;99.90;;;;;;4971968;28;20045;-77
2023/09/01 02:44:02;;;;;;;1.60;0.85;;;17.20;99.90;;;;;;4972901;28;20474;-77
2023/09/01 02:46:27;;;;;;;2.40;0.93;;;17.20;99.90;;;;;;4970082;28;20446;-78
2023/09/01 02:48:53;;;;;;;5.18;1.30;;;17.30;99.90;;;;;;4969230;28;20038;-77
2023/09/01 02:51:18;;;;;;;1.17;0.77;;;17.30;99.90;;;;;;4966473;28;20041;-77
2023/09/01 02:53:44;;;;;;;2.72;1.10;;;17.30;99.90;;;;;;4971953;28;20050;-78
2023/09/01 02:56:10;;;;;;;3.63;1.05;;;17.20;99.90;;;;;;4971032;28;20019;-77
2023/09/01 02:58:36;;;;;;;2.17;0.88;;;17.30;99.90;;;;;;4973780;28;20043;-79
2023/09/01 03:01:09;;;;;;;1.35;0.70;;;17.30;99.90;;;;;;4975463;28;20105;-78
2023/09/01 03:03:40;;;;;;;1.80;0.90;;;17.30;99.90;;;;;;4973258;28;20023;-78
2023/09/01 03:06:08;;;;;;;3.90;1.00;;;17.30;99.90;;;;;;4971943;28;20038;-76
2023/09/01 03:08:34;;;;;;;2.35;0.80;;;17.30;99.90;;;;;;4970512;28;20057;-77
2023/09/01 03:11:06;;;;;;;1.13;0.70;;;17.30;99.90;;;;;;4970834;28;20133;-77
2023/09/01 03:13:32;;;;;;;1.95;1.00;;;17.30;99.90;;;;;;4971899;28;20050;-77
2023/09/01 03:16:04;;;;;;;2.55;1.00;;;17.40;99.90;;;;;;4974037;28;20029;-77
2023/09/01 03:18:29;;;;;;;1.80;0.70;;;17.40;99.90;;;;;;4969727;28;20447;-77
2023/09/01 03:20:56;;;;;;;0.90;0.52;;;17.40;99.90;;;;;;4973602;28;20107;-77
2023/09/01 03:23:22;;;;;;;1.33;0.80;;;17.40;99.90;;;;;;4954770;28;20031;-77
2023/09/01 03:25:55;;;;;;;1.45;0.70;;;17.40;99.90;;;;;;4966717;28;20026;-77
2023/09/01 03:28:21;;;;;;;0.60;0.50;;;17.40;99.90;;;;;;4975052;28;20026;-77
2023/09/01 03:30:49;;;;;;;1.23;0.60;;;17.40;99.90;;;;;;4966060;28;20038;-77
2023/09/01 03:33:15;;;;;;;2.60;1.10;;;17.50;99.90;;;;;;4955609;28;20413;-75
2023/09/01 03:35:40;;;;;;;0.95;0.57;;;17.40;99.90;;;;;;4971966;28;20023;-79
2023/09/01 03:38:12;;;;;;;1.08;0.47;;;17.50;99.90;;;;;;4976601;28;20023;-78
2023/09/01 03:40:38;;;;;;;1.20;0.70;;;17.50;99.90;;;;;;4972539;28;20050;-78
2023/09/01 03:43:12;;;;;;;1.23;0.40;;;17.50;99.90;;;;;;4971489;28;20038;-77
2023/09/01 03:45:44;;;;;;;0.95;0.50;;;17.50;99.90;;;;;;4972277;28;20074;-79
2023/09/01 03:48:13;;;;;;;2.47;0.63;;;17.60;99.90;;;;;;4969517;28;20617;-79
2023/09/01 03:50:38;;;;;;;2.95;0.50;;;17.50;99.90;;;;;;4971149;28;20031;-79
2023/09/01 03:53:04;;;;;;;1.23;0.65;;;17.60;99.90;;;;;;4966261;28;20057;-78
2023/09/01 03:55:41;;;;;;;1.10;0.63;;;17.50;99.90;;;;;;4973294;28;20023;-77
2023/09/01 03:58:10;;;;;;;1.17;0.60;;;17.50;99.90;;;;;;4967300;28;20110;-78
2023/09/01 04:00:35;;;;;;;2.15;0.70;;;17.50;99.90;;;;;;4968811;28;20027;-77
2023/09/01 04:03:02;;;;;;;2.30;0.85;;;17.50;99.90;;;;;;4973586;28;20117;-77
2023/09/01 04:05:31;;;;;;;2.05;0.60;;;17.50;99.90;;;;;;4972964;28;20033;-78
2023/09/01 04:07:59;;;;;;;1.63;0.60;;;17.50;99.90;;;;;;4978149;28;20547;-78
2023/09/01 04:10:28;;;;;;;0.82;0.50;;;17.50;99.90;;;;;;4975224;28;20117;-78
2023/09/01 04:12:54;;;;;;;1.33;0.60;;;17.50;99.90;;;;;;4976887;28;20409;-77
2023/09/01 04:15:19;;;;;;;1.15;0.70;;;17.50;99.90;;;;;;4977804;28;20034;-76
2023/09/01 04:17:51;;;;;;;1.92;0.82;;;17.50;99.90;;;;;;4978189;28;20030;-76
2023/09/01 04:20:20;;;;;;;1.95;0.90;;;17.50;99.90;;;;;;4971790;28;20027;-77
2023/09/01 04:22:52;;;;;;;0.57;0.45;;;17.40;99.90;;;;;;4975345;28;20074;-78
2023/09/01 04:25:17;;;;;;;0.80;0.50;;;17.40;99.90;;;;;;4971725;28;20030;-76
2023/09/01 04:27:46;;;;;;;1.58;0.82;;;17.40;99.90;;;;;;4973744;28;20061;-77
2023/09/01 04:30:12;;;;;;;1.95;0.65;;;17.40;99.90;;;;;;4965619;28;20836;-77
2023/09/01 04:32:46;;;;;;;0.98;0.50;;;17.40;99.90;;;;;;4971350;28;20090;-76
2023/09/01 04:35:12;;;;;;;0.73;0.60;;;17.40;99.90;;;;;;4959391;28;20129;-77
2023/09/01 04:37:41;;;;;;;1.13;0.50;;;17.40;99.90;;;;;;4968340;28;20053;-77
2023/09/01 04:40:09;;;;;;;2.05;0.43;;;17.40;99.90;;;;;;4971690;28;20027;-77
2023/09/01 04:42:34;;;;;;;2.38;0.50;;;17.40;99.90;;;;;;4968289;28;20034;-77
2023/09/01 04:45:00;;;;;;;0.60;0.45;;;17.40;99.90;;;;;;4975484;28;20478;-78
2023/09/01 04:47:27;;;;;;;1.00;0.43;;;17.40;99.90;;;;;;4974342;28;20057;-76
2023/09/01 04:49:52;;;;;;;0.93;0.50;;;17.40;99.90;;;;;;4972489;28;20026;-76
2023/09/01 04:52:24;;;;;;;1.10;0.50;;;17.40;99.90;;;;;;4974545;28;20082;-76
2023/09/01 04:54:52;;;;;;;0.98;0.60;;;17.40;99.90;;;;;;4970929;28;20050;-78
2023/09/01 04:57:21;;;;;;;1.17;0.50;;;17.40;99.90;;;;;;4976474;28;20034;-77
2023/09/01 04:59:53;;;;;;;0.90;0.47;;;17.40;99.90;;;;;;4974545;28;20023;-78
2023/09/01 05:02:18;;;;;;;1.98;0.50;;;17.40;99.90;;;;;;4970861;28;20363;-75
2023/09/01 05:04:44;;;;;;;0.77;0.52;;;17.40;99.90;;;;;;4951581;28;20093;-77
2023/09/01 05:07:10;;;;;;;1.02;0.47;;;17.40;99.90;;;;;;4959228;28;20161;-77
2023/09/01 05:09:39;;;;;;;1.27;0.98;;;17.40;99.90;;;;;;4973574;28;20035;-78
2023/09/01 05:12:11;;;;;;;2.13;0.50;;;17.50;99.90;;;;;;4978217;28;20058;-78
2023/09/01 05:14:48;;;;;;;1.77;0.52;;;17.40;99.90;;;;;;4970210;28;20035;-72
2023/09/01 05:17:14;;;;;;;3.70;0.80;;;17.50;99.90;;;;;;4968385;28;20037;-74
2023/09/01 05:19:39;;;;;;;2.58;0.70;;;17.50;99.90;;;;;;4948571;28;20378;-74
2023/09/01 05:22:08;;;;;;;1.48;0.60;;;17.50;99.90;;;;;;4965182;28;20370;-74
2023/09/01 05:24:33;;;;;;;0.88;0.55;;;17.50;99.90;;;;;;4958904;28;20043;-74
2023/09/01 05:27:05;;;;;;;1.00;0.30;;;17.60;99.90;;;;;;4956271;28;20033;-78
2023/09/01 05:29:31;;;;;;;0.65;0.43;;;17.60;99.90;;;;;;4976582;28;20038;-77
2023/09/01 05:31:59;;;;;;;0.90;0.50;;;17.60;99.90;;;;;;4956084;28;20409;-74
2023/09/01 05:34:25;;;;;;;0.88;0.50;;;17.60;99.90;;;;;;4972356;28;20042;-78
2023/09/01 05:36:50;;;;;;;1.30;0.50;;;17.70;99.90;;;;;;4976721;28;20095;-77
2023/09/01 05:39:19;;;;;;;1.80;0.40;;;17.70;99.90;;;;;;4953641;28;20031;-78
2023/09/01 05:41:48;;;;;;;1.38;0.90;;;17.70;99.90;;;;;;4975073;28;20034;-77
2023/09/01 05:44:14;;;;;;;1.30;0.70;;;17.70;99.90;;;;;;4971841;28;20029;-77
2023/09/01 05:46:42;;;;;;;1.85;0.40;;;17.70;99.90;;;;;;4970441;28;20035;-77
2023/09/01 05:49:08;;;;;;;1.67;0.85;;;17.80;99.90;;;;;;4975464;28;20034;-77
2023/09/01 05:51:36;;;;;;;0.80;0.40;;;17.80;99.90;;;;;;4974549;28;20079;-79
2023/09/01 05:54:08;;;;;;;1.10;0.73;;;17.80;99.90;;;;;;4973709;28;20038;-79
2023/09/01 05:56:37;;;;;;;2.13;0.77;;;17.80;99.90;;;;;;4975589;28;20046;-79
2023/09/01 05:59:03;;;;;;;2.05;0.73;;;17.80;99.90;;;;;;4965062;28;20110;-78
2023/09/01 06:01:32;;;;;;;0.88;0.50;;;17.80;99.90;;;;;;4970665;28;20050;-77
2023/09/01 06:03:58;;;;;;;1.38;0.70;;;17.80;99.90;;;;;;4970814;28;20027;-79
2023/09/01 06:06:24;;;;;;;2.15;0.60;;;17.80;99.90;;;;;;4975011;28;20049;-80
2023/09/01 06:08:56;;;;;;;1.75;0.60;;;17.90;99.90;;;;;;4954228;28;20023;-80
2023/09/01 06:11:22;;;;;;;1.67;0.40;;;17.80;99.90;;;;;;4971617;28;20067;-78
2023/09/01 06:13:49;;;;;;;1.98;0.50;;;17.80;99.90;;;;;;4954941;28;20054;-80
2023/09/01 06:16:14;;;;;;;1.50;0.60;;;17.70;99.90;;;;;;4974138;28;20027;-79
2023/09/01 06:18:43;;;;;;;2.35;0.80;;;17.70;99.90;;;;;;4972921;28;20038;-79
2023/09/01 06:21:15;;;;;;;3.67;1.20;;;17.70;99.90;;;;;;4970906;28;20045;-79
2023/09/01 06:23:47;;;;;;;2.95;0.80;;;17.70;99.90;;;;;;4971106;28;20030;-78
2023/09/01 06:26:20;;;;;;;3.00;0.80;;;17.70;99.90;;;;;;4971734;28;20058;-79
2023/09/01 06:28:46;;;;;;;1.48;1.08;;;17.60;99.90;;;;;;4971013;28;20057;-78
2023/09/01 06:31:16;;;;;;;1.30;0.80;;;17.60;99.90;;;;;;4972910;28;20035;-79
2023/09/01 06:33:43;;;;;;;2.45;0.60;;;17.60;99.90;;;;;;4967583;28;20034;-77
2023/09/01 06:36:13;;;;;;;2.35;0.95;;;17.60;99.90;;;;;;4970199;28;20038;-79
2023/09/01 06:38:42;;;;;;;2.63;1.20;;;17.60;99.90;;;;;;4969084;28;20494;-79
2023/09/01 06:41:10;;;;;;;4.05;0.95;;;17.60;99.90;;;;;;4970785;28;20109;-78
2023/09/01 06:43:36;;;;;;;5.05;0.98;;;17.60;99.90;;;;;;4966758;28;20125;-79
2023/09/01 06:46:08;;;;;;;1.85;0.90;;;17.60;99.90;;;;;;4971172;28;20037;-78
2023/09/01 06:48:35;;;;;;;1.17;0.70;;;17.60;99.90;;;;;;4969787;28;20496;-80
2023/09/01 06:51:03;;;;;;;2.75;0.80;;;17.60;99.90;;;;;;4967159;28;20030;-79
2023/09/01 06:53:29;;;;;;;3.38;1.05;;;17.60;99.90;;;;;;4963834;28;20027;-79
2023/09/01 06:55:55;;;;;;;2.88;0.75;;;17.50;99.90;;;;;;4970970;28;20019;-78
2023/09/01 06:58:26;;;;;;;2.28;0.93;;;17.50;99.90;;;;;;4972209;28;20033;-79
2023/09/01 07:01:10;;;;;;;1.58;0.70;;;17.50;99.90;;;;;;4950814;28;20026;-79
2023/09/01 07:03:35;;;;;;;1.23;0.80;;;17.50;99.90;;;;;;4967597;28;20485;-78
2023/09/01 07:06:01;;;;;;;1.45;0.70;;;17.50;99.90;;;;;;4966639;28;20038;-78
2023/09/01 07:08:28;;;;;;;8.52;1.13;;;17.60;99.90;;;;;;4971042;28;20027;-80
2023/09/01 07:10:59;;;;;;;1.00;0.60;;;17.60;99.90;;;;;;4969053;28;20515;-79
2023/09/01 07:13:25;;;;;;;1.52;0.70;;;17.60;99.90;;;;;;4973305;28;20670;-80
2023/09/01 07:15:51;;;;;;;2.83;0.60;;;17.70;99.90;;;;;;4976387;28;20050;-79
2023/09/01 07:18:16;;;;;;;1.50;0.70;;;17.70;99.90;;;;;;4958657;28;20019;-79
2023/09/01 07:20:45;;;;;;;0.95;0.52;;;17.70;99.90;;;;;;4973139;28;20087;-80
2023/09/01 07:23:14;;;;;;;1.25;0.80;;;17.80;99.90;;;;;;4977205;28;20083;-80
2023/09/01 07:25:44;;;;;;;1.55;0.65;;;17.80;99.90;;;;;;4975008;28;20030;-78
2023/09/01 07:28:11;;;;;;;2.20;0.70;;;17.90;99.90;;;;;;4955133;28;20288;-80
2023/09/01 07:30:40;;;;;;;1.00;0.65;;;17.90;99.90;;;;;;4971461;28;20030;-80
2023/09/01 07:33:06;;;;;;;1.38;0.82;;;17.90;99.90;;;;;;4971790;28;20057;-77
2023/09/01 07:35:31;;;;;;;1.05;0.73;;;18.00;99.90;;;;;;4954416;28;20435;-78
2023/09/01 07:38:02;;;;;;;2.50;0.95;;;18.00;99.90;;;;;;4971223;28;20079;-80
2023/09/01 07:40:29;;;;;;;2.13;1.02;;;18.10;99.90;;;;;;4969130;28;20049;-79
2023/09/01 07:42:58;;;;;;;1.05;0.88;;;18.20;99.90;;;;;;4953226;28;20030;-79
2023/09/01 07:45:24;;;;;;;1.85;0.60;;;18.20;99.90;;;;;;4972725;28;20034;-80
2023/09/01 07:47:49;;;;;;;1.85;1.05;;;18.30;99.90;;;;;;4957484;28;20027;-79
2023/09/01 07:50:15;;;;;;;1.75;0.98;;;18.30;99.90;;;;;;4969231;28;20485;-79
2023/09/01 07:52:51;;;;;;;0.75;0.60;;;18.40;99.90;;;;;;4971308;28;20157;-79
2023/09/01 07:55:17;;;;;;;1.60;0.75;;;18.40;99.90;;;;;;4973065;28;20067;-79
2023/09/01 07:57:42;;;;;;;2.55;0.85;;;18.40;99.90;;;;;;4971615;28;20070;-80
2023/09/01 08:00:09;;;;;;;2.28;1.17;;;18.50;99.90;;;;;;4971412;28;20446;-78
2023/09/01 08:02:37;;;;;;;2.50;1.15;;;18.50;99.90;;;;;;4964116;28;20613;-79
2023/09/01 08:05:03;;;;;;;2.90;0.90;;;18.60;99.90;;;;;;4972468;28;20450;-78
2023/09/01 08:07:30;;;;;;;1.35;0.85;;;18.60;99.90;;;;;;4971917;28;20062;-78
2023/09/01 08:09:57;;;;;;;1.95;0.88;;;18.60;99.90;;;;;;4970887;28;20023;-78
2023/09/01 08:12:22;;;;;;;2.35;0.90;;;18.70;99.90;;;;;;4970926;28;20035;-78
2023/09/01 08:14:51;;;;;;;1.70;0.70;;;18.80;99.90;;;;;;4955368;28;20033;-77
2023/09/01 08:17:17;;;;;;;2.70;1.13;;;19.00;99.90;;;;;;4971585;28;20026;-77
2023/09/01 08:19:47;;;;;;;2.25;0.90;;;19.00;99.90;;;;;;4967531;28;20158;-78
2023/09/01 08:22:12;;;;;;;2.58;1.13;;;19.10;99.90;;;;;;4966745;28;20035;-76
2023/09/01 08:24:38;;;;;;;3.42;1.10;;;19.20;99.90;;;;;;4974492;28;20035;-77
2023/09/01 08:27:06;;;;;;;2.65;1.10;;;19.30;99.90;;;;;;4969042;28;20093;-78
2023/09/01 08:29:33;;;;;;;1.48;1.23;;;19.40;99.90;;;;;;4951546;28;20052;-78
2023/09/01 08:32:00;;;;;;;3.00;1.20;;;19.50;99.90;;;;;;4972204;28;20414;-78
2023/09/01 08:34:27;;;;;;;1.40;0.90;;;19.70;99.90;;;;;;4969585;28;20117;-78
2023/09/01 08:36:52;;;;;;;3.60;1.17;;;19.90;99.90;;;;;;4969155;28;20131;-77
2023/09/01 08:39:22;;;;;;;3.30;0.98;;;19.90;99.90;;;;;;4984796;23;20062;-71
2023/09/01 08:41:48;;;;;;;4.45;1.17;;;20.00;99.90;;;;;;4954737;28;20027;-73
2023/09/01 08:44:14;;;;;;;3.25;0.93;;;20.10;99.90;;;;;;4972445;28;20035;-73
2023/09/01 08:46:40;;;;;;;1.70;0.93;;;20.20;99.90;;;;;;4972199;28;20504;-73
2023/09/01 08:49:08;;;;;;;2.20;1.40;;;20.20;99.90;;;;;;4957859;28;20031;-73
2023/09/01 08:51:39;;;;;;;2.63;1.40;;;20.10;99.90;;;;;;4936028;29;20053;-72
2023/09/01 08:54:06;;;;;;;4.00;1.02;;;20.10;99.90;;;;;;4956893;29;20023;-74
2023/09/01 08:56:33;;;;;;;3.67;1.00;;;20.10;99.90;;;;;;4956875;29;20027;-73
2023/09/01 08:58:59;;;;;;;3.20;1.25;;;20.00;99.90;;;;;;4957037;28;20015;-74
2023/09/01 09:01:24;;;;;;;2.25;1.00;;;20.00;99.90;;;;;;4957031;29;20031;-71
2023/09/01 09:03:50;;;;;;;4.45;0.80;;;20.00;99.90;;;;;;4939766;29;20085;-73
2023/09/01 09:06:16;;;;;;;2.30;0.90;;;20.00;99.90;;;;;;4956612;29;20482;-73
2023/09/01 09:08:42;;;;;;;3.75;1.30;;;20.00;99.90;;;;;;4956456;28;20023;-72
2023/09/01 09:11:14;;;;;;;2.03;0.88;;;20.10;99.90;;;;;;4956491;29;20027;-72
2023/09/01 09:13:42;;;;;;;2.38;1.02;;;20.10;99.90;;;;;;4956341;29;20367;-73
2023/09/01 09:16:11;;;;;;;1.55;0.90;;;20.20;99.90;;;;;;4956342;29;20131;-73
2023/09/01 09:18:38;;;;;;;2.80;1.17;;;20.20;99.90;;;;;;4956448;28;20023;-73
2023/09/01 09:21:04;;;;;;;3.28;1.20;;;20.30;99.90;;;;;;4939017;29;20101;-74
2023/09/01 09:23:44;;;;;;;2.03;1.05;;;20.40;99.90;;;;;;4938982;29;20494;-71
2023/09/01 09:26:11;;;;;;;2.10;1.40;;;20.40;99.90;;;;;;4938647;29;20498;-73
2023/09/01 09:28:39;;;;;;;1.60;0.90;;;20.60;99.90;;;;;;4923244;29;20470;-73
2023/09/01 09:31:05;;;;;;;1.35;0.93;;;20.70;99.90;;;;;;4958532;28;20106;-73
2023/09/01 09:33:34;;;;;;;2.05;1.10;;;20.80;99.90;;;;;;4975418;28;20050;-72
2023/09/01 09:36:00;;;;;;;2.03;1.00;;;21.00;99.90;;;;;;4951498;29;20045;-72
2023/09/01 09:38:52;;;;;;;3.80;0.98;;;21.10;99.90;;;;;;4960772;28;20416;-72
2023/09/01 09:41:21;;;;;;;4.00;1.20;;;21.20;99.90;;;;;;4975107;28;20023;-72
2023/09/01 09:43:50;;;;;;;2.17;1.15;;;21.30;99.90;;;;;;4969401;28;20070;-72
2023/09/01 09:46:16;;;;;;;2.15;0.88;;;21.30;99.90;;;;;;4963662;28;20398;-72
2023/09/01 09:48:43;;;;;;;1.90;0.88;;;21.40;99.90;;;;;;4955619;28;20566;-72
2023/09/01 09:51:10;;;;;;;2.10;1.00;;;21.40;99.90;;;;;;4955727;29;20054;-72
2023/09/01 09:53:38;;;;;;;2.85;1.00;;;21.50;99.90;;;;;;4955498;28;20041;-71
2023/09/01 09:56:33;;;;;;;2.35;0.90;;;21.50;99.90;;;;;;4955691;29;20019;-72
2023/09/01 09:59:03;;;;;;;2.85;1.52;;;21.60;99.90;;;;;;4955562;28;20054;-72
2023/09/01 10:01:39;;;;;;;2.33;1.25;;;21.70;99.90;;;;;;4938342;29;20107;-72
2023/09/01 10:04:05;;;;;;;1.92;1.00;;;21.70;99.90;;;;;;4955615;28;20486;-72
2023/09/01 10:06:34;;;;;;;1.42;1.05;;;21.80;99.90;;;;;;4938145;29;20033;-72
2023/09/01 10:09:08;;;;;;;3.53;1.27;;;21.80;99.90;;;;;;4955522;28;20031;-72
2023/09/01 10:11:33;;;;;;;2.67;1.00;;;21.80;99.90;;;;;;4955537;29;20035;-73
2023/09/01 10:14:00;;;;;;;3.08;0.90;;;21.80;99.90;;;;;;4955352;29;20035;-72
2023/09/01 10:16:26;;;;;;;2.97;1.00;;;21.80;99.90;;;;;;4938113;29;20398;-72
2023/09/01 10:18:53;;;;;;;3.20;1.10;;;21.80;99.90;;;;;;4955262;28;20110;-73
2023/09/01 10:21:20;;;;;;;2.78;1.25;;;21.80;99.90;;;;;;4934410;29;20032;-72
2023/09/01 10:23:46;;;;;;;1.23;0.90;;;21.80;99.90;;;;;;4936236;29;20106;-72
2023/09/01 10:26:28;;;;;;;1.42;1.05;;;21.80;99.90;;;;;;4936044;29;20028;-73
2023/09/01 10:29:01;;;;;;;5.43;1.05;;;21.80;99.90;;;;;;4935934;29;20114;-72
2023/09/01 10:31:28;;;;;;;2.63;1.38;;;21.80;99.90;;;;;;4937836;29;20509;-72
2023/09/01 10:34:08;;;;;;;2.80;1.00;;;21.90;99.90;;;;;;4955162;29;20116;-72
2023/09/01 10:36:34;;;;;;;2.53;1.00;;;21.90;99.90;;;;;;4944057;29;20058;-72
2023/09/01 10:39:23;;;;;;;1.50;0.90;;;21.90;99.90;;;;;;4942389;29;20474;-73
2023/09/01 10:41:58;;;;;;;1.60;0.70;;;22.00;99.90;;;;;;4937687;29;20032;-72
2023/09/01 10:44:44;;;;;;;2.05;0.80;;;22.00;99.90;;;;;;4937605;29;20512;-72
2023/09/01 10:47:31;;;;;;;2.08;1.10;;;22.00;99.90;;;;;;4954807;28;20102;-73
2023/09/01 10:50:01;;;;;;;1.52;0.80;;;22.00;99.90;;;;;;4954535;29;20482;-72
2023/09/01 10:52:28;;;;;;;2.15;0.93;;;22.00;99.90;;;;;;4937469;29;20393;-72
2023/09/01 10:55:05;;;;;;;3.17;0.90;;;22.10;99.90;;;;;;4954665;29;20094;-72
2023/09/01 10:57:49;;;;;;;3.42;1.10;;;22.10;99.90;;;;;;4956954;28;20019;-72
2023/09/01 11:00:31;;;;;;;;;;;22.10;99.90;;;;;;4973808;28;20029;-72
2023/09/01 11:03:33;;;;;;;4.50;1.33;;;22.10;99.90;;;;;;4942435;29;19913;-72
2023/09/01 11:06:01;;;;;;;1.67;0.85;;;22.20;99.90;;;;;;4954499;29;20030;-72
2023/09/01 11:08:30;;;;;;;3.22;0.93;;;22.20;99.90;;;;;;4954288;29;20031;-71
2023/09/01 11:11:05;;;;;;;2.45;0.80;;;22.30;99.90;;;;;;4958515;28;20019;-73
2023/09/01 11:13:43;;;;;;;2.78;0.80;;;22.30;99.90;;;;;;4973630;28;20114;-72
2023/09/01 11:16:12;;;;;;;2.33;0.88;;;22.40;99.90;;;;;;4953644;28;20106;-72
2023/09/01 11:18:46;;;;;;;2.28;0.85;;;22.40;99.90;;;;;;4949585;28;20031;-72
2023/09/01 11:21:11;;;;;;;1.45;0.90;;;22.50;99.90;;;;;;4950662;29;20046;-72
2023/09/01 11:23:38;;;;;;;1.35;0.93;;;22.50;99.90;;;;;;4954003;29;20063;-72
2023/09/01 11:26:08;;;;;;;2.03;0.90;;;22.60;99.90;;;;;;4954095;28;20513;-72
2023/09/01 11:28:34;;;;;;;0.85;0.60;;;22.60;99.90;;;;;;4953944;28;20037;-72
2023/09/01 11:31:07;;;;;;;3.05;1.55;;;22.70;99.90;;;;;;4953856;29;20442;-72
2023/09/01 11:33:34;;;;;;;6.13;1.75;;;22.70;99.90;;;;;;4933479;29;20027;-72
2023/09/01 11:36:10;;;;;;;2.20;1.10;;;22.70;99.90;;;;;;4917792;29;20024;-72
2023/09/01 11:38:36;;;;;;;3.25;1.00;;;22.80;99.90;;;;;;4946486;28;20502;-72
2023/09/01 11:41:04;;;;;;;2.15;0.80;;;22.80;99.90;;;;;;4973167;28;20053;-72
2023/09/01 11:43:33;;;;;;;2.58;1.35;;;22.80;99.90;;;;;;4959103;28;20027;-72
2023/09/01 11:45:59;;;;;;;1.40;0.68;;;22.80;99.90;;;;;;4953771;29;20122;-72
2023/09/01 11:48:26;;;;;;;1.27;0.63;;;22.80;99.90;;;;;;4953636;28;20538;-72
2023/09/01 11:50:59;;;;;;;1.92;0.82;;;22.80;99.90;;;;;;4953592;29;20049;-72
2023/09/01 11:53:35;;;;;;;2.72;1.30;;;22.90;99.90;;;;;;4933105;29;20040;-72
2023/09/01 11:56:17;;;;;;;1.65;0.70;;;22.90;99.90;;;;;;4940752;28;20051;-72
2023/09/01 11:58:47;;;;;;;2.10;0.98;;;22.90;99.90;;;;;;4950365;28;20023;-72
2023/09/01 12:01:18;;;;;;;1.77;1.02;;;22.80;99.90;;;;;;4934865;29;20024;-72
2023/09/01 12:03:51;;;;;;;0.95;0.70;;;22.80;99.90;;;;;;4943033;29;20039;-72
2023/09/01 12:06:26;;;;;;;1.38;0.90;;;22.70;99.90;;;;;;4953574;29;20042;-70
2023/09/01 12:09:13;;;;;;;1.25;0.95;;;22.60;99.90;;;;;;4956249;28;20429;-72
2023/09/01 12:12:14;;;;;;;2.13;0.80;;;22.50;99.90;;;;;;4941891;28;20126;-71
2023/09/01 12:14:43;;;;;;;1.40;0.57;;;22.40;99.90;;;;;;4890457;29;20029;-72
2023/09/01 12:17:23;;;;;;;1.95;1.00;;;22.40;99.90;;;;;;4938554;29;20099;-72
2023/09/01 12:19:51;;;;;;;1.15;0.70;;;22.40;99.90;;;;;;4953240;29;20201;-72
2023/09/01 12:22:20;;;;;;;1.42;0.82;;;22.40;99.90;;;;;;4959956;28;20173;-72
2023/09/01 12:24:57;;;;;;;3.78;0.95;;;22.40;99.90;;;;;;4953016;29;20074;-72
2023/09/01 12:27:23;;;;;;;2.45;0.88;;;22.50;99.90;;;;;;4961461;28;20034;-72
2023/09/01 12:29:49;;;;;;;1.40;0.90;;;22.50;99.90;;;;;;4971572;28;20035;-73
2023/09/01 12:32:26;;;;;;;1.95;0.93;;;22.50;99.90;;;;;;4957095;29;20037;-73
2023/09/01 12:34:51;;;;;;;1.83;0.80;;;22.50;99.90;;;;;;4957319;29;20455;-73
2023/09/01 12:37:20;;;;;;;3.67;1.15;;;22.60;99.90;;;;;;4956925;28;20058;-72
2023/09/01 12:39:45;;;;;;;1.65;0.98;;;22.60;99.90;;;;;;4957074;29;20039;-73
2023/09/01 12:42:11;;;;;;;1.85;1.00;;;22.60;99.90;;;;;;4956952;29;20106;-71
2023/09/01 12:44:37;;;;;;;1.65;0.68;;;22.70;99.90;;;;;;4957144;29;20486;-72
2023/09/01 12:47:05;;;;;;;1.75;0.90;;;22.70;99.90;;;;;;4957553;29;20048;-73
2023/09/01 12:49:31;;;;;;;2.53;1.00;;;22.70;99.90;;;;;;4957390;28;20050;-72
2023/09/01 12:51:57;;;;;;;2.03;0.80;;;22.80;99.90;;;;;;4939749;29;20023;-72
2023/09/01 12:54:32;;;;;;;3.30;0.80;;;22.90;99.90;;;;;;4957132;29;20038;-72
2023/09/01 12:56:57;;;;;;;1.10;0.70;;;23.00;99.90;;;;;;4957300;29;20107;-72
2023/09/01 12:59:32;;;;;;;1.45;0.70;;;23.10;99.90;;;;;;4956571;28;20102;-72